TimeEDT,TemperatureF,Dew PointF,Humidity,Sea Level PressureIn,VisibilityMPH,Wind Direction,Wind SpeedMPH,Gust SpeedMPH,PrecipitationIn,Events,Conditions,WindDirDegrees,DateUTC
12:56 AM,33.1,28.9,85,29.75,10.0,Calm,Calm,-,N/A,,Clear,0,2013-03-25 04:56:00
1:56 AM,32.0,30.0,92,29.73,10.0,North,3.5,-,N/A,,Clear,10,2013-03-25 05:56:00
2:56 AM,32.0,30.0,92,29.72,10.0,NNE,3.5,-,N/A,,Clear,30,2013-03-25 06:56:00
3:56 AM,33.1,30.9,92,29.69,10.0,NNE,5.8,-,N/A,,Clear,20,2013-03-25 07:56:00
4:56 AM,34.0,30.0,85,29.67,10.0,NNE,6.9,-,N/A,,Clear,20,2013-03-25 08:56:00
5:56 AM,35.1,27.0,72,29.66,10.0,NNE,6.9,-,N/A,,Clear,30,2013-03-25 09:56:00
6:56 AM,34.0,27.0,75,29.66,10.0,NNE,6.9,-,N/A,,Clear,20,2013-03-25 10:56:00
7:56 AM,36.0,27.0,70,29.66,10.0,NE,12.7,-,N/A,,Clear,40,2013-03-25 11:56:00
8:56 AM,39.0,30.9,73,29.63,10.0,ENE,15.0,-,N/A,,Clear,60,2013-03-25 12:56:00
9:56 AM,39.9,30.9,70,29.62,10.0,ENE,16.1,21.9,N/A,,Overcast,60,2013-03-25 13:56:00
10:56 AM,44.1,28.0,53,29.61,10.0,ENE,13.8,-,N/A,,Overcast,70,2013-03-25 14:56:00
11:56 AM,44.1,28.0,53,29.57,10.0,East,16.1,-,N/A,,Overcast,80,2013-03-25 15:56:00
12:56 PM,43.0,30.9,62,29.55,10.0,East,18.4,21.9,N/A,,Overcast,100,2013-03-25 16:56:00
1:56 PM,44.1,30.0,58,29.51,10.0,ENE,16.1,-,N/A,,Overcast,70,2013-03-25 17:56:00
2:56 PM,44.1,28.9,55,29.44,10.0,ENE,15.0,25.3,N/A,,Mostly Cloudy,70,2013-03-25 18:56:00
3:56 PM,44.1,25.0,47,29.44,10.0,ENE,20.7,29.9,N/A,,Overcast,60,2013-03-25 19:56:00
4:56 PM,42.1,24.1,49,29.44,10.0,ENE,21.9,33.4,N/A,,Overcast,60,2013-03-25 20:56:00
5:56 PM,41.0,25.0,53,29.45,10.0,NE,18.4,27.6,N/A,,Overcast,40,2013-03-25 21:56:00
6:56 PM,41.0,26.1,55,29.47,10.0,NE,20.7,34.5,N/A,,Overcast,50,2013-03-25 22:56:00
7:56 PM,39.9,28.0,63,29.48,10.0,NE,19.6,26.5,0.00,,Overcast,40,2013-03-25 23:56:00
8:56 PM,36.0,34.0,93,29.50,6.0,NNE,16.1,21.9,0.00,Rain,Light Rain,30,2013-03-26 00:56:00
9:39 PM,35.6,35.6,100,29.50,6.0,North,11.5,-,0.00,Rain,Light Rain,10,2013-03-26 01:39:00
9:56 PM,35.1,35.1,100,29.50,7.0,North,10.4,-,0.00,Rain,Light Rain,350,2013-03-26 01:56:00
10:23 PM,35.6,35.6,100,29.50,8.0,North,13.8,-,0.00,Rain,Light Rain,360,2013-03-26 02:23:00
10:56 PM,36.0,34.0,93,29.50,10.0,North,13.8,21.9,0.00,,Overcast,360,2013-03-26 02:56:00
11:56 PM,36.0,33.1,89,29.52,8.0,North,12.7,19.6,0.00,Rain,Light Rain,360,2013-03-26 03:56:00